createdAt,value
2022-11-03T00:01:45.060Z,101734.81
2022-11-03T00:04:13.436Z,101734.81
2022-11-03T00:06:41.503Z,101743.16
2022-11-03T00:09:10.352Z,101735.41
2022-11-03T00:11:38.486Z,101730.56
2022-11-03T00:14:06.033Z,101732.25
2022-11-03T00:16:32.960Z,101731.63
2022-11-03T00:18:59.393Z,101731.75
2022-11-03T00:21:25.774Z,101724.13
2022-11-03T00:23:52.206Z,101723.63
2022-11-03T00:26:29.870Z,101720.50
2022-11-03T00:29:00.489Z,101726.78
2022-11-03T00:31:28.910Z,101719.66
2022-11-03T00:33:55.820Z,101715.41
2022-11-03T00:36:24.623Z,101703.31
2022-11-03T00:38:51.505Z,101700.78
2022-11-03T00:41:20.939Z,101694.34
2022-11-03T00:43:48.367Z,101690.97
2022-11-03T00:46:14.990Z,101690.97
2022-11-03T00:48:41.379Z,101687.94
2022-11-03T00:51:10.760Z,101681.28
2022-11-03T00:53:40.047Z,101692.53
2022-11-03T00:56:07.862Z,101691.91
2022-11-03T00:58:34.265Z,101684.53
2022-11-03T01:01:07.356Z,101682.13
2022-11-03T01:03:35.998Z,101679.22
2022-11-03T01:06:23.196Z,101682.00
2022-11-03T01:08:49.597Z,101680.06
2022-11-03T01:11:39.017Z,101684.78
2022-11-03T01:14:05.659Z,101687.81
2022-11-03T01:16:32.456Z,101692.16
2022-11-03T01:18:59.216Z,101683.56
2022-11-03T01:21:26.124Z,101690.09
2022-11-03T01:23:52.880Z,101689.25
2022-11-03T01:26:19.718Z,101688.84
2022-11-03T01:28:47.571Z,101688.00
2022-11-03T01:31:22.810Z,101689.47
2022-11-03T01:33:50.645Z,101686.34
2022-11-03T01:36:18.371Z,101673.03
2022-11-03T01:38:44.870Z,101675.94
2022-11-03T01:41:21.251Z,101664.09
2022-11-03T01:43:51.736Z,101664.81
2022-11-03T01:46:28.861Z,101665.78
2022-11-03T01:49:07.839Z,101657.91
2022-11-03T01:51:36.547Z,101662.75
2022-11-03T01:54:07.760Z,101661.28
2022-11-03T01:56:38.413Z,101651.75
2022-11-03T01:59:04.949Z,101650.78
2022-11-03T02:01:31.932Z,101646.03
2022-11-03T02:04:07.398Z,101637.94
2022-11-03T02:06:33.757Z,101641.34
2022-11-03T02:09:04.420Z,101651.59
2022-11-03T02:11:51.589Z,101650.28
2022-11-03T02:14:18.026Z,101641.22
2022-11-03T02:16:49.563Z,101639.50
2022-11-03T02:19:36.154Z,101639.63
2022-11-03T02:22:29.672Z,101647.63
2022-11-03T02:25:29.614Z,101650.06
2022-11-03T02:27:56.173Z,101652.56
2022-11-03T02:30:22.615Z,101646.44
2022-11-03T02:33:27.546Z,101642.66
2022-11-03T02:36:02.355Z,101634.81
2022-11-03T02:38:31.945Z,101635.78
2022-11-03T02:41:03.128Z,101637.09
2022-11-03T02:43:29.828Z,101634.81
2022-11-03T02:45:56.661Z,101629.22
2022-11-03T02:48:23.087Z,101623.78
2022-11-03T02:50:49.546Z,101632.00
2022-11-03T02:53:16.640Z,101624.97
2022-11-03T02:55:51.717Z,101620.97
2022-11-03T02:58:58.765Z,101616.50
2022-11-03T03:01:46.989Z,101611.03
2022-11-03T03:04:26.889Z,101607.03
2022-11-03T03:07:16.549Z,101603.41
2022-11-03T03:09:55.744Z,101603.16
2022-11-03T03:12:22.904Z,101605.84
2022-11-03T03:14:51.850Z,101603.25
2022-11-03T03:17:30.740Z,101597.34
2022-11-03T03:20:46.632Z,101597.34
2022-11-03T03:23:18.692Z,101601.56
2022-11-03T03:25:50.425Z,101596.72
2022-11-03T03:28:22.890Z,101596.56
2022-11-03T03:30:52.614Z,101597.78
2022-11-03T03:33:19.810Z,101596.97
2022-11-03T03:35:49.519Z,101589.94
2022-11-03T03:38:20.317Z,101588.63
2022-11-03T03:40:50.317Z,101584.28
2022-11-03T03:43:17.271Z,101582.91
2022-11-03T03:45:45.361Z,101587.16
2022-11-03T03:48:12.263Z,101581.56
2022-11-03T03:50:40.817Z,101579.75
2022-11-03T03:53:11.227Z,101574.81
2022-11-03T03:55:43.846Z,101578.28
2022-11-03T03:58:13.468Z,101575.28
2022-11-03T04:00:40.718Z,101575.28
2022-11-03T04:03:14.300Z,101577.09
2022-11-03T04:05:40.680Z,101574.16
2022-11-03T04:08:07.420Z,101571.38
2022-11-03T04:10:34.076Z,101572.03
2022-11-03T04:13:19.132Z,101573.38
2022-11-03T04:16:04.009Z,101571.91
2022-11-03T04:18:49.155Z,101568.78
2022-11-03T04:21:34.030Z,101567.34
2022-11-03T04:24:00.465Z,101566.00
2022-11-03T04:26:28.326Z,101560.09
2022-11-03T04:28:56.000Z,101560.22
2022-11-03T04:31:22.709Z,101559.00
2022-11-03T04:33:49.180Z,101551.75
2022-11-03T04:36:20.129Z,101551.13
2022-11-03T04:38:46.802Z,101553.06
2022-11-03T04:41:17.767Z,101547.47
2022-11-03T04:43:46.216Z,101541.06
2022-11-03T04:46:16.140Z,101542.16
2022-11-03T04:48:43.578Z,101540.72
2022-11-03T04:51:15.473Z,101537.56
2022-11-03T04:53:47.865Z,101531.63
2022-11-03T04:56:21.870Z,101530.34
2022-11-03T04:58:48.313Z,101537.19
2022-11-03T05:01:23.764Z,101534.31
2022-11-03T05:03:53.683Z,101528.25
2022-11-03T05:06:23.086Z,101526.91
2022-11-03T05:08:57.993Z,101523.78
2022-11-03T05:11:24.302Z,101519.81
2022-11-03T05:13:51.972Z,101512.06
2022-11-03T05:16:18.763Z,101509.16
2022-11-03T05:18:48.047Z,101495.50
2022-11-03T05:21:17.780Z,101490.44
2022-11-03T05:23:48.364Z,101487.53
2022-11-03T05:26:24.406Z,101487.75
2022-11-03T05:28:54.064Z,101484.38
2022-11-03T05:31:23.791Z,101481.72
2022-11-03T05:33:52.159Z,101477.28
2022-11-03T05:36:24.328Z,101478.13
2022-11-03T05:38:55.738Z,101471.81
2022-11-03T05:41:24.491Z,101475.69
2022-11-03T05:43:57.537Z,101481.38
2022-11-03T05:46:24.333Z,101480.28
2022-11-03T05:48:51.309Z,101483.91
2022-11-03T05:51:32.485Z,101492.13
2022-11-03T05:54:01.365Z,101488.97
2022-11-03T05:56:28.070Z,101484.75
2022-11-03T05:58:57.169Z,101485.72
2022-11-03T06:01:31.222Z,101492.88
2022-11-03T06:04:00.954Z,101494.94
2022-11-03T06:06:35.509Z,101494.78
2022-11-03T06:09:03.481Z,101492.34
2022-11-03T06:11:36.848Z,101487.16
2022-11-03T06:14:16.642Z,101493.44
2022-11-03T06:17:00.496Z,101493.94
2022-11-03T06:19:31.410Z,101489.72
2022-11-03T06:22:02.600Z,101493.47
2022-11-03T06:24:30.928Z,101492.38
2022-11-03T06:26:58.425Z,101494.31
2022-11-03T06:29:25.327Z,101494.44
2022-11-03T06:31:56.110Z,101494.94
2022-11-03T06:34:43.682Z,101496.25
2022-11-03T06:37:21.197Z,101483.56
2022-11-03T06:39:48.830Z,101489.25
2022-11-03T06:42:16.893Z,101484.28
2022-11-03T06:44:47.333Z,101482.59
2022-11-03T06:47:23.631Z,101483.22
2022-11-03T06:49:56.449Z,101487.53
2022-11-03T06:52:32.351Z,101481.25
2022-11-03T06:55:10.851Z,101481.34
2022-11-03T06:57:43.106Z,101477.34
2022-11-03T07:00:41.157Z,101478.69
2022-11-03T07:03:18.620Z,101476.25
2022-11-03T07:05:45.313Z,101477.22
2022-11-03T07:08:24.914Z,101477.66
2022-11-03T07:10:59.087Z,101482.41
2022-11-03T07:13:25.890Z,101474.88
2022-11-03T07:15:52.393Z,101475.44
2022-11-03T07:18:25.715Z,101469.75
2022-11-03T07:20:53.830Z,101470.19
2022-11-03T07:23:25.150Z,101474.28
2022-11-03T07:25:54.613Z,101474.47
2022-11-03T07:28:31.302Z,101471.38
2022-11-03T07:30:59.673Z,101475.53
2022-11-03T07:33:29.366Z,101478.38
2022-11-03T07:38:50.289Z,101471.22
2022-11-03T07:41:20.809Z,101469.88
2022-11-03T07:44:00.776Z,101461.22
2022-11-03T07:46:27.705Z,101462.47
2022-11-03T07:48:59.109Z,101454.63
2022-11-03T07:51:27.280Z,101449.31
2022-11-03T07:53:58.961Z,101440.63
2022-11-03T07:56:29.244Z,101441.19
2022-11-03T07:59:00.846Z,101433.41
2022-11-03T08:01:40.500Z,101429.94
2022-11-03T08:04:09.997Z,101432.31
2022-11-03T08:06:36.397Z,101424.19
2022-11-03T08:09:02.920Z,101428.84
2022-11-03T08:11:29.898Z,101426.03
2022-11-03T08:13:57.109Z,101412.84
2022-11-03T08:16:23.495Z,101415.41
2022-11-03T08:18:49.918Z,101407.28
2022-11-03T08:21:17.789Z,101402.91
2022-11-03T08:23:47.293Z,101403.66
2022-11-03T08:26:14.689Z,101392.16
2022-11-03T08:28:41.061Z,101392.88
2022-11-03T08:31:12.845Z,101393.16
2022-11-03T08:33:40.483Z,101394.00
2022-11-03T08:36:08.471Z,101388.75
2022-11-03T08:38:35.149Z,101381.34
2022-11-03T08:41:02.190Z,101384.00
2022-11-03T08:43:28.834Z,101379.78
2022-11-03T08:45:55.510Z,101361.38
2022-11-03T08:48:23.603Z,101365.59
2022-11-03T08:50:54.289Z,101359.56
2022-11-03T08:53:25.838Z,101360.78
2022-11-03T08:55:56.037Z,101354.41
2022-11-03T08:58:23.095Z,101356.47
2022-11-03T09:00:50.174Z,101353.16
2022-11-03T09:03:16.816Z,101346.59
2022-11-03T09:05:43.286Z,101343.50
2022-11-03T09:10:56.112Z,101336.78
2022-11-03T09:13:22.522Z,101328.69
2022-11-03T09:15:48.908Z,101327.56
2022-11-03T09:18:15.982Z,101324.28
2022-11-03T09:20:42.386Z,101320.81
2022-11-03T09:23:08.765Z,101320.25
2022-11-03T09:25:35.132Z,101311.72
2022-11-03T09:28:01.505Z,101313.41
2022-11-03T09:30:28.848Z,101308.69
2022-11-03T09:32:55.235Z,101302.03
2022-11-03T09:35:21.637Z,101305.69
2022-11-03T09:37:48.015Z,101307.19
2022-11-03T09:40:17.089Z,101305.25
2022-11-03T09:42:43.982Z,101302.22
2022-11-03T09:45:10.612Z,101293.59
2022-11-03T09:47:40.194Z,101286.06
2022-11-03T09:50:11.237Z,101282.44
2022-11-03T09:52:37.970Z,101284.13
2022-11-03T09:55:14.151Z,101280.50
2022-11-03T09:57:40.935Z,101273.81
2022-11-03T10:00:16.147Z,101262.63
2022-11-03T10:02:43.311Z,101261.50
2022-11-03T10:07:46.298Z,101259.28
2022-11-03T10:10:20.937Z,101249.78
2022-11-03T10:12:49.597Z,101247.84
2022-11-03T10:15:17.797Z,101247.56
2022-11-03T10:17:45.533Z,101238.88
2022-11-03T10:20:17.256Z,101236.38
2022-11-03T10:22:45.082Z,101233.00
2022-11-03T10:25:33.747Z,101237.19
2022-11-03T10:28:20.504Z,101229.13
2022-11-03T10:33:54.857Z,101214.22
2022-11-03T10:36:26.654Z,101204.72
2022-11-03T10:38:53.955Z,101205.81
2022-11-03T10:41:28.775Z,101199.38
2022-11-03T10:44:13.380Z,101196.56
2022-11-03T10:46:56.088Z,101200.47
2022-11-03T10:49:22.987Z,101191.47
2022-11-03T10:51:52.404Z,101185.59
2022-11-03T10:54:22.095Z,101178.03
2022-11-03T10:56:50.829Z,101176.28
2022-11-03T10:59:34.606Z,101180.22
2022-11-03T11:02:01.916Z,101170.13
2022-11-03T11:04:28.660Z,101159.19
2022-11-03T11:06:55.157Z,101169.81
2022-11-03T11:09:25.701Z,101156.31
2022-11-03T11:12:20.402Z,101159.97
2022-11-03T11:14:57.909Z,101149.31
2022-11-03T11:17:45.494Z,101153.22
2022-11-03T11:20:21.376Z,101139.19
2022-11-03T11:22:49.126Z,101140.84
2022-11-03T11:25:17.909Z,101139.69
2022-11-03T11:27:44.215Z,101131.25
2022-11-03T11:30:19.666Z,101125.63
2022-11-03T11:32:45.977Z,101116.63
2022-11-03T11:35:20.627Z,101111.56
2022-11-03T11:37:47.074Z,101117.41
2022-11-03T11:40:19.657Z,101105.91
2022-11-03T11:43:18.632Z,101112.06
2022-11-03T11:46:22.063Z,101104.72
2022-11-03T11:48:57.297Z,101097.44
2022-11-03T11:51:24.556Z,101089.91
2022-11-03T11:54:16.289Z,101080.59
2022-11-03T11:56:43.852Z,101079.97
2022-11-03T11:59:24.278Z,101069.00
2022-11-03T12:01:52.247Z,101072.09
2022-11-03T12:04:31.325Z,101062.22
2022-11-03T12:06:58.344Z,101063.63
2022-11-03T12:09:27.693Z,101051.28
2022-11-03T12:11:58.331Z,101048.72
2022-11-03T12:14:28.750Z,101047.28
2022-11-03T12:16:55.968Z,101047.31
2022-11-03T12:19:38.830Z,101047.28
2022-11-03T12:22:10.969Z,101045.06
2022-11-03T12:24:46.666Z,101047.53
2022-11-03T12:27:25.286Z,101042.78
2022-11-03T12:29:59.616Z,101045.31
2022-11-03T12:32:33.392Z,101030.97
2022-11-03T12:35:08.206Z,101025.84
2022-11-03T12:37:34.751Z,101030.34
2022-11-03T12:40:01.127Z,101027.84
2022-11-03T12:42:27.526Z,101024.72
2022-11-03T12:44:53.991Z,101022.25
2022-11-03T12:47:21.417Z,101016.63
2022-11-03T12:49:48.058Z,101011.25
2022-11-03T12:52:14.982Z,101014.97
2022-11-03T12:54:42.457Z,101008.28
2022-11-03T12:57:08.959Z,101009.94
2022-11-03T12:59:35.337Z,100995.25
2022-11-03T13:02:01.792Z,100992.19
2022-11-03T13:04:28.282Z,100982.97
2022-11-03T13:06:54.656Z,100986.56
2022-11-03T13:09:21.166Z,100976.09
2022-11-03T13:12:05.920Z,100985.09
2022-11-03T13:14:32.304Z,100985.06
2022-11-03T13:16:58.768Z,100981.31
2022-11-03T13:19:25.224Z,100975.22
2022-11-03T13:21:51.837Z,100972.34
2022-11-03T13:24:18.223Z,100965.81
2022-11-03T13:26:44.673Z,100954.91
2022-11-03T13:29:11.209Z,100948.22
2022-11-03T13:31:37.575Z,100943.09
2022-11-03T13:34:03.940Z,100932.03
2022-11-03T13:36:30.455Z,100926.47
2022-11-03T13:38:56.953Z,100917.94
2022-11-03T13:41:23.413Z,100909.03
2022-11-03T13:43:49.803Z,100911.81
2022-11-03T13:46:16.173Z,100900.84
2022-11-03T13:51:28.917Z,100890.56
2022-11-03T13:59:28.597Z,100881.94
2022-11-03T14:04:42.831Z,100870.38
2022-11-03T14:07:10.139Z,100865.66
2022-11-03T14:12:26.212Z,100857.28
2022-11-03T14:14:52.609Z,100851.41
2022-11-03T14:17:19.006Z,100848.88
2022-11-03T14:19:51.766Z,100848.31
2022-11-03T14:22:20.380Z,100854.19
2022-11-03T14:24:46.802Z,100847.22
2022-11-03T14:27:13.564Z,100840.41
2022-11-03T14:29:39.962Z,100845.75
2022-11-03T14:32:06.370Z,100845.97
2022-11-03T14:34:32.828Z,100838.09
2022-11-03T14:36:59.317Z,100819.78
2022-11-03T14:39:25.710Z,100816.97
2022-11-03T14:42:04.005Z,100821.38
2022-11-03T14:44:32.205Z,100805.31
2022-11-03T14:47:01.381Z,100809.53
2022-11-03T14:49:28.537Z,100807.06
2022-11-03T14:51:56.768Z,100790.56
2022-11-03T14:54:24.135Z,100796.94
2022-11-03T14:56:50.590Z,100789.44
2022-11-03T14:59:17.019Z,100788.81
2022-11-03T15:01:43.629Z,100775.28
2022-11-03T15:04:10.162Z,100780.53
2022-11-03T15:06:36.736Z,100773.66
2022-11-03T15:09:04.064Z,100768.34
2022-11-03T15:11:31.228Z,100762.75
2022-11-03T15:13:57.617Z,100769.47
2022-11-03T15:16:24.041Z,100758.25
2022-11-03T15:18:51.021Z,100759.38
2022-11-03T15:21:17.724Z,100752.72
2022-11-03T15:26:30.585Z,100753.78
2022-11-03T15:28:56.947Z,100743.25
2022-11-03T15:31:23.663Z,100735.50
2022-11-03T15:33:50.087Z,100724.00
2022-11-03T15:36:16.534Z,100716.56
2022-11-03T15:38:42.996Z,100709.00
2022-11-03T15:41:15.568Z,100713.19
2022-11-03T15:43:43.432Z,100717.06
2022-11-03T15:46:10.771Z,100706.38
2022-11-03T15:48:38.223Z,100703.13
2022-11-03T15:51:05.481Z,100701.75
2022-11-03T15:53:31.892Z,100695.38
2022-11-03T15:55:58.395Z,100689.66
2022-11-03T15:58:24.917Z,100676.50
2022-11-03T16:00:51.422Z,100670.56
2022-11-03T16:03:18.133Z,100664.47
2022-11-03T16:05:44.555Z,100655.94
2022-11-03T16:08:11.253Z,100640.53
2022-11-03T16:10:38.174Z,100629.84
2022-11-03T16:13:04.540Z,100635.69
2022-11-03T16:15:30.934Z,100629.44
2022-11-03T16:18:02.564Z,100633.53
2022-11-03T16:20:32.190Z,100628.84
2022-11-03T16:22:58.575Z,100626.56
2022-11-03T16:25:25.002Z,100622.16
2022-11-03T16:27:51.372Z,100612.63
2022-11-03T16:30:17.859Z,100614.75
2022-11-03T16:32:44.272Z,100610.09
2022-11-03T16:35:10.675Z,100604.22
2022-11-03T16:37:37.416Z,100597.53
2022-11-03T16:40:05.142Z,100588.81
2022-11-03T16:42:38.080Z,100584.09
2022-11-03T16:45:15.017Z,100583.13
2022-11-03T16:47:41.404Z,100577.66
2022-11-03T16:50:08.041Z,100572.81
2022-11-03T16:52:34.431Z,100582.06
2022-11-03T16:55:00.807Z,100562.16
2022-11-03T16:57:27.275Z,100563.81
2022-11-03T16:59:53.652Z,100564.03
2022-11-03T17:02:20.365Z,100557.00
2022-11-03T17:04:46.752Z,100552.81
2022-11-03T17:07:13.173Z,100548.03
2022-11-03T17:09:39.543Z,100561.78
2022-11-03T17:12:06.069Z,100553.66
2022-11-03T17:14:32.460Z,100555.78
2022-11-03T17:16:58.831Z,100556.16
2022-11-03T17:19:25.215Z,100552.22
2022-11-03T17:21:51.764Z,100550.00
2022-11-03T17:24:18.170Z,100548.91
2022-11-03T17:27:04.938Z,100549.78
2022-11-03T17:29:44.104Z,100538.09
2022-11-03T17:32:15.478Z,100538.16
2022-11-03T17:34:41.874Z,100528.56
2022-11-03T17:37:08.363Z,100524.53
2022-11-03T17:39:37.003Z,100527.47
2022-11-03T17:42:12.226Z,100520.22
2022-11-03T17:44:38.611Z,100519.28
2022-11-03T17:47:04.991Z,100518.84
2022-11-03T17:49:31.374Z,100511.41
2022-11-03T17:51:59.110Z,100512.41
2022-11-03T17:54:29.476Z,100504.88
2022-11-03T17:56:56.061Z,100499.06
2022-11-03T17:59:22.518Z,100487.41
2022-11-03T18:01:49.017Z,100466.44
2022-11-03T18:06:47.063Z,100464.94
2022-11-03T18:09:13.450Z,100451.75
2022-11-03T18:12:00.706Z,100436.91
2022-11-03T18:14:29.097Z,100445.84
2022-11-03T18:16:56.759Z,100441.97
2022-11-03T18:19:23.237Z,100431.72
2022-11-03T18:21:50.362Z,100424.97
2022-11-03T18:24:19.529Z,100430.34
2022-11-03T18:26:46.005Z,100416.56
2022-11-03T18:29:12.412Z,100406.84
2022-11-03T18:31:46.842Z,100387.13
2022-11-03T18:34:38.042Z,100385.50
2022-11-03T18:37:04.342Z,100377.38
2022-11-03T18:39:30.965Z,100373.16
2022-11-03T18:41:57.349Z,100368.06
2022-11-03T18:44:29.402Z,100371.13
2022-11-03T18:46:57.069Z,100356.63
2022-11-03T18:49:25.266Z,100361.91
2022-11-03T18:52:02.053Z,100357.38
2022-11-03T18:54:30.658Z,100351.03
2022-11-03T18:56:57.500Z,100335.69
2022-11-03T18:59:27.128Z,100322.28
2022-11-03T19:01:53.886Z,100312.94
2022-11-03T19:04:20.946Z,100312.72
2022-11-03T19:06:49.442Z,100311.06
2022-11-03T19:09:19.752Z,100315.75
2022-11-03T19:11:47.887Z,100321.06
2022-11-03T19:14:26.219Z,100322.09
2022-11-03T19:19:39.842Z,100303.09
2022-11-03T19:22:15.151Z,100304.31
2022-11-03T19:24:42.710Z,100305.69
2022-11-03T19:27:17.095Z,100301.84
2022-11-03T19:29:45.199Z,100303.03
2022-11-03T19:32:22.599Z,100285.16
2022-11-03T19:34:56.062Z,100283.66
2022-11-03T19:37:22.466Z,100284.03
2022-11-03T19:40:00.086Z,100290.16
2022-11-03T19:42:29.235Z,100296.53
2022-11-03T19:44:59.569Z,100283.13
2022-11-03T19:47:32.549Z,100269.19
2022-11-03T19:50:04.302Z,100260.50
2022-11-03T19:52:31.816Z,100239.53
2022-11-03T19:55:01.712Z,100216.66
2022-11-03T19:57:28.118Z,100218.22
2022-11-03T19:59:58.744Z,100212.50
2022-11-03T20:02:27.815Z,100211.88
2022-11-03T20:04:54.495Z,100218.63
2022-11-03T20:07:20.931Z,100228.75
2022-11-03T20:09:47.305Z,100235.50
2022-11-03T20:12:18.913Z,100226.41
2022-11-03T20:14:45.298Z,100236.88
2022-11-03T20:17:14.429Z,100221.34
2022-11-03T20:19:41.132Z,100223.47
2022-11-03T20:22:12.644Z,100216.97
2022-11-03T20:24:39.295Z,100208.88
2022-11-03T20:27:05.915Z,100205.31
2022-11-03T20:29:34.882Z,100210.63
2022-11-03T20:32:01.436Z,100206.13
2022-11-03T20:34:27.953Z,100205.75
2022-11-03T20:36:54.402Z,100208.31
2022-11-03T20:39:20.856Z,100210.22
2022-11-03T20:41:49.322Z,100205.44
2022-11-03T20:44:16.009Z,100201.53
2022-11-03T20:46:42.881Z,100196.97
2022-11-03T20:49:12.644Z,100182.63
2022-11-03T20:51:45.722Z,100189.16
2022-11-03T20:54:20.074Z,100192.97
2022-11-03T20:56:47.019Z,100189.03
2022-11-03T21:01:43.400Z,100190.94
2022-11-03T21:04:14.924Z,100182.63
2022-11-03T21:06:41.348Z,100180.00
2022-11-03T21:09:12.444Z,100177.75
2022-11-03T21:11:40.483Z,100176.16
2022-11-03T21:14:20.718Z,100179.56
2022-11-03T21:17:06.496Z,100179.25
2022-11-03T21:19:51.874Z,100171.84
2022-11-03T21:22:50.416Z,100168.03
2022-11-03T21:25:16.862Z,100164.69
2022-11-03T21:27:43.277Z,100158.38
2022-11-03T21:30:14.323Z,100157.53
2022-11-03T21:32:40.677Z,100150.81
2022-11-03T21:35:08.106Z,100138.69
2022-11-03T21:37:34.561Z,100134.56
2022-11-03T21:40:00.963Z,100138.03
2022-11-03T21:42:45.737Z,100123.28
2022-11-03T21:45:12.630Z,100116.16
2022-11-03T21:47:39.050Z,100115.72
2022-11-03T21:50:05.827Z,100122.78
2022-11-03T21:52:32.337Z,100129.97
2022-11-03T21:55:00.065Z,100123.13
2022-11-03T21:57:26.882Z,100135.28
2022-11-03T21:59:53.284Z,100125.53
2022-11-03T22:02:19.691Z,100130.13
2022-11-03T22:04:46.135Z,100132.34
2022-11-03T22:07:12.521Z,100130.84
2022-11-03T22:09:38.942Z,100132.13
2022-11-03T22:12:05.886Z,100127.22
2022-11-03T22:14:52.701Z,100129.09
2022-11-03T22:17:19.090Z,100127.94
2022-11-03T22:20:04.035Z,100128.06
2022-11-03T22:22:49.304Z,100125.28
2022-11-03T22:25:34.470Z,100117.03
2022-11-03T22:28:00.867Z,100105.81
2022-11-03T22:30:45.924Z,100101.44
2022-11-03T22:33:12.762Z,100098.88
2022-11-03T22:35:57.774Z,100103.44
2022-11-03T22:38:44.123Z,100097.56
2022-11-03T22:41:29.340Z,100100.34
2022-11-03T22:44:14.085Z,100092.03
2022-11-03T22:46:40.468Z,100088.06
2022-11-03T22:49:06.835Z,100098.34
2022-11-03T22:51:33.220Z,100089.66
2022-11-03T22:54:11.460Z,100092.44
2022-11-03T22:56:41.105Z,100091.75
2022-11-03T22:59:08.021Z,100082.19
2022-11-03T23:01:35.301Z,100085.53
2022-11-03T23:04:01.881Z,100090.19
2022-11-03T23:06:33.449Z,100089.91
2022-11-03T23:08:59.890Z,100094.28
2022-11-03T23:11:32.270Z,100087.56
2022-11-03T23:14:10.332Z,100089.41
2022-11-03T23:16:42.067Z,100093.59
2022-11-03T23:19:30.085Z,100089.75
2022-11-03T23:21:56.496Z,100083.34
2022-11-03T23:24:45.295Z,100082.22
2022-11-03T23:27:13.050Z,100068.94
2022-11-03T23:29:39.878Z,100058.31
2022-11-03T23:32:06.282Z,100068.28
2022-11-03T23:34:34.642Z,100061.44
2022-11-03T23:37:01.028Z,100058.53
2022-11-03T23:39:27.396Z,100060.22
2022-11-03T23:41:53.802Z,100055.22
2022-11-03T23:44:20.435Z,100046.25
2022-11-03T23:47:05.461Z,100051.41
2022-11-03T23:49:31.869Z,100038.47
2022-11-03T23:51:58.277Z,100048.47
2022-11-03T23:54:25.522Z,100045.00
2022-11-03T23:57:10.409Z,100037.38
2022-11-03T23:59:36.813Z,100036.50
